createdAt,value
2023-01-19T00:01:32.441Z,91.77
2023-01-19T00:04:00.001Z,91.72
2023-01-19T00:06:27.560Z,91.64
2023-01-19T00:08:55.057Z,91.04
2023-01-19T00:11:22.636Z,90.59
2023-01-19T00:13:50.825Z,89.70
2023-01-19T00:16:22.966Z,90.00
2023-01-19T00:18:52.369Z,89.57
2023-01-19T00:21:21.452Z,89.72
2023-01-19T00:23:51.076Z,89.40
2023-01-19T00:26:19.335Z,89.15
2023-01-19T00:28:47.169Z,88.57
2023-01-19T00:31:14.732Z,88.42
2023-01-19T00:33:43.623Z,88.41
2023-01-19T00:36:11.503Z,88.24
2023-01-19T00:38:39.648Z,88.48
2023-01-19T00:41:07.500Z,88.26
2023-01-19T00:43:35.050Z,88.27
2023-01-19T00:46:02.752Z,87.51
2023-01-19T00:48:30.726Z,87.81
2023-01-19T00:50:59.995Z,87.93
2023-01-19T00:53:29.079Z,88.01
2023-01-19T00:55:56.638Z,87.57
2023-01-19T00:58:24.190Z,87.17
2023-01-19T01:00:54.660Z,87.71
2023-01-19T01:03:28.006Z,86.65
2023-01-19T01:05:55.740Z,87.03
2023-01-19T01:08:25.103Z,86.96
2023-01-19T01:10:53.112Z,86.74
2023-01-19T01:13:21.931Z,87.17
2023-01-19T01:15:51.024Z,86.72
2023-01-19T01:18:18.562Z,86.57
2023-01-19T01:20:46.073Z,86.51
2023-01-19T01:23:14.022Z,86.62
2023-01-19T01:25:43.341Z,86.59
2023-01-19T01:28:11.020Z,86.77
2023-01-19T01:30:40.871Z,86.40
2023-01-19T01:33:09.259Z,86.75
2023-01-19T01:42:19.270Z,86.28
2023-01-19T01:44:51.128Z,86.49
2023-01-19T01:47:27.638Z,87.02
2023-01-19T01:50:01.973Z,87.18
2023-01-19T01:52:31.007Z,86.77
2023-01-19T01:54:59.198Z,86.94
2023-01-19T01:57:28.679Z,86.88
2023-01-19T01:59:58.235Z,87.25
2023-01-19T02:02:48.215Z,86.98
2023-01-19T02:05:18.454Z,86.38
2023-01-19T02:08:09.107Z,86.95
2023-01-19T02:10:54.539Z,86.94
2023-01-19T02:13:25.481Z,87.23
2023-01-19T02:15:55.939Z,86.38
2023-01-19T02:18:26.122Z,86.65
2023-01-19T02:21:00.511Z,87.11
2023-01-19T02:23:38.780Z,86.43
2023-01-19T02:26:09.420Z,86.85
2023-01-19T02:28:39.764Z,86.89
2023-01-19T02:31:07.640Z,86.93
2023-01-19T02:33:35.558Z,86.68
2023-01-19T02:36:03.821Z,86.79
2023-01-19T02:38:33.657Z,86.64
2023-01-19T02:41:03.179Z,86.72
2023-01-19T02:43:31.950Z,86.55
2023-01-19T02:45:59.569Z,86.68
2023-01-19T02:48:27.498Z,86.80
2023-01-19T02:50:57.717Z,86.58
2023-01-19T02:53:50.659Z,86.44
2023-01-19T02:56:45.543Z,86.18
2023-01-19T02:59:23.157Z,86.69
2023-01-19T03:02:09.751Z,86.81
2023-01-19T03:04:52.294Z,86.78
2023-01-19T03:07:29.042Z,87.28
2023-01-19T03:10:04.817Z,87.19
2023-01-19T03:12:40.612Z,87.34
2023-01-19T03:15:16.453Z,87.19
2023-01-19T03:17:46.331Z,87.59
2023-01-19T03:20:16.644Z,87.63
2023-01-19T03:22:45.442Z,87.80
2023-01-19T03:25:15.205Z,87.61
2023-01-19T03:27:44.910Z,88.12
2023-01-19T03:30:18.431Z,87.68
2023-01-19T03:32:50.736Z,87.78
2023-01-19T03:35:21.738Z,87.83
2023-01-19T03:37:52.979Z,87.91
2023-01-19T03:40:23.184Z,87.83
2023-01-19T03:42:51.357Z,87.81
2023-01-19T03:45:19.636Z,88.17
2023-01-19T03:47:47.395Z,88.58
2023-01-19T03:50:24.020Z,88.41
2023-01-19T03:53:02.194Z,88.41
2023-01-19T03:55:31.583Z,88.49
2023-01-19T03:57:59.135Z,88.31
2023-01-19T04:00:27.089Z,88.38
2023-01-19T04:02:55.388Z,89.20
2023-01-19T04:05:23.463Z,89.45
2023-01-19T04:07:51.373Z,89.23
2023-01-19T04:10:19.929Z,89.56
2023-01-19T04:12:49.368Z,89.68
2023-01-19T04:15:18.459Z,89.82
2023-01-19T04:17:45.985Z,90.36
2023-01-19T04:20:13.882Z,90.04
2023-01-19T04:22:42.499Z,90.71
2023-01-19T04:25:11.420Z,91.07
2023-01-19T04:27:39.012Z,90.54
2023-01-19T04:30:09.947Z,90.81
2023-01-19T04:32:37.515Z,91.02
2023-01-19T04:35:05.796Z,91.06
2023-01-19T04:37:33.377Z,91.82
2023-01-19T04:40:00.904Z,91.01
2023-01-19T04:42:28.504Z,91.59
2023-01-19T04:44:56.007Z,91.79
2023-01-19T04:47:24.894Z,91.43
2023-01-19T04:49:52.415Z,90.89
2023-01-19T04:52:20.246Z,91.40
2023-01-19T04:54:47.735Z,91.23
2023-01-19T04:57:15.259Z,91.27
2023-01-19T04:59:42.826Z,91.14
2023-01-19T05:02:11.297Z,90.93
2023-01-19T05:04:40.359Z,91.71
2023-01-19T05:07:07.916Z,91.60
2023-01-19T05:09:35.467Z,91.17
2023-01-19T05:12:03.039Z,91.43
2023-01-19T05:14:31.073Z,92.31
2023-01-19T05:16:58.699Z,92.47
2023-01-19T05:19:26.444Z,91.79
2023-01-19T05:21:55.353Z,92.27
2023-01-19T05:24:22.959Z,92.00
2023-01-19T05:26:50.517Z,91.86
2023-01-19T05:29:18.031Z,92.85
2023-01-19T05:31:45.552Z,92.89
2023-01-19T05:34:14.348Z,92.86
2023-01-19T05:36:42.244Z,92.11
2023-01-19T05:39:11.412Z,92.90
2023-01-19T05:41:39.002Z,92.50
2023-01-19T05:44:06.603Z,92.89
2023-01-19T05:46:34.403Z,93.33
2023-01-19T05:49:04.122Z,93.45
2023-01-19T05:51:35.025Z,93.18
2023-01-19T05:54:02.540Z,93.87
2023-01-19T05:56:31.452Z,93.71
2023-01-19T05:58:58.984Z,94.18
2023-01-19T06:01:27.114Z,94.22
2023-01-19T06:03:55.341Z,94.19
2023-01-19T06:06:23.513Z,94.57
2023-01-19T06:08:51.107Z,94.77
2023-01-19T06:11:18.688Z,95.46
2023-01-19T06:13:47.714Z,95.42
2023-01-19T06:16:15.608Z,96.14
2023-01-19T06:18:43.210Z,96.15
2023-01-19T06:21:13.505Z,96.28
2023-01-19T06:23:41.295Z,96.26
2023-01-19T06:26:09.122Z,96.17
2023-01-19T06:28:36.682Z,96.20
2023-01-19T06:31:06.320Z,96.19
2023-01-19T06:33:33.898Z,96.72
2023-01-19T06:36:01.628Z,96.49
2023-01-19T06:38:29.216Z,97.00
2023-01-19T06:40:59.475Z,96.60
2023-01-19T06:43:27.485Z,96.51
2023-01-19T06:45:56.020Z,96.26
2023-01-19T06:48:25.024Z,96.90
2023-01-19T06:50:52.523Z,96.24
2023-01-19T06:53:22.110Z,96.26
2023-01-19T06:55:49.728Z,96.03
2023-01-19T06:58:17.468Z,96.03
2023-01-19T07:00:45.123Z,96.18
2023-01-19T07:03:20.487Z,96.27
2023-01-19T07:05:52.395Z,96.41
2023-01-19T07:08:20.314Z,96.09
2023-01-19T07:11:25.977Z,96.48
2023-01-19T07:13:36.179Z,96.34
2023-01-19T07:16:07.371Z,96.06
2023-01-19T07:18:35.956Z,96.33
2023-01-19T07:21:05.946Z,97.08
2023-01-19T07:23:33.992Z,97.16
2023-01-19T07:26:02.402Z,96.95
2023-01-19T07:28:29.977Z,97.35
2023-01-19T07:30:58.006Z,97.14
2023-01-19T07:33:26.060Z,97.29
2023-01-19T07:35:54.692Z,97.04
2023-01-19T07:38:23.613Z,96.91
2023-01-19T07:40:51.188Z,97.55
2023-01-19T07:43:19.354Z,97.20
2023-01-19T07:45:47.058Z,97.49
2023-01-19T07:48:14.640Z,97.74
2023-01-19T07:50:42.202Z,97.64
2023-01-19T07:53:11.824Z,97.55
2023-01-19T07:55:40.954Z,97.21
2023-01-19T07:58:08.492Z,97.72
2023-01-19T08:00:37.860Z,97.66
2023-01-19T08:03:06.320Z,96.97
2023-01-19T08:05:34.736Z,97.64
2023-01-19T08:08:02.322Z,98.13
2023-01-19T08:10:30.087Z,97.34
2023-01-19T08:12:59.454Z,97.53
2023-01-19T08:15:27.682Z,97.88
2023-01-19T08:17:57.051Z,97.83
2023-01-19T08:20:25.219Z,97.61
2023-01-19T08:22:59.729Z,96.73
2023-01-19T08:25:32.637Z,96.81
2023-01-19T08:28:02.381Z,96.45
2023-01-19T08:30:30.330Z,97.14
2023-01-19T08:33:04.121Z,97.06
2023-01-19T08:35:31.996Z,96.06
2023-01-19T08:38:01.482Z,95.76
2023-01-19T08:40:29.770Z,95.79
2023-01-19T08:43:03.617Z,95.81
2023-01-19T08:45:31.906Z,95.75
2023-01-19T08:47:59.980Z,95.86
2023-01-19T08:50:27.841Z,95.74
2023-01-19T08:52:56.740Z,95.71
2023-01-19T08:55:24.404Z,95.60
2023-01-19T08:57:53.561Z,95.85
2023-01-19T09:00:22.914Z,96.03
2023-01-19T09:02:51.089Z,95.63
2023-01-19T09:05:18.921Z,95.79
2023-01-19T09:07:47.973Z,95.64
2023-01-19T09:10:16.090Z,95.05
2023-01-19T09:12:44.810Z,95.84
2023-01-19T09:15:14.070Z,96.16
2023-01-19T09:17:43.111Z,96.16
2023-01-19T09:20:11.717Z,96.74
2023-01-19T09:22:39.564Z,96.02
2023-01-19T09:25:08.222Z,96.54
2023-01-19T09:27:35.781Z,95.61
2023-01-19T09:30:03.721Z,95.75
2023-01-19T09:32:31.282Z,95.95
2023-01-19T09:35:00.123Z,95.73
2023-01-19T09:37:27.675Z,96.04
2023-01-19T09:39:55.459Z,96.47
2023-01-19T09:42:33.265Z,96.52
2023-01-19T09:45:02.217Z,96.28
2023-01-19T09:47:33.238Z,96.11
2023-01-19T09:50:06.676Z,96.09
2023-01-19T09:52:40.473Z,95.88
2023-01-19T09:55:20.449Z,95.34
2023-01-19T09:57:48.056Z,95.55
2023-01-19T10:00:17.329Z,95.94
2023-01-19T10:02:49.650Z,95.95
2023-01-19T10:05:27.775Z,95.12
2023-01-19T10:08:08.498Z,94.32
2023-01-19T10:10:37.419Z,94.89
2023-01-19T10:13:22.445Z,95.03
2023-01-19T10:15:57.478Z,95.15
2023-01-19T10:18:30.978Z,94.74
2023-01-19T10:21:05.984Z,94.36
2023-01-19T10:23:42.101Z,93.88
2023-01-19T10:26:16.491Z,94.50
2023-01-19T10:28:46.362Z,94.30
2023-01-19T10:31:15.193Z,93.20
2023-01-19T10:33:42.833Z,94.18
2023-01-19T10:36:20.088Z,93.33
2023-01-19T10:38:48.578Z,93.63
2023-01-19T10:41:22.119Z,93.03
2023-01-19T10:43:50.854Z,92.82
2023-01-19T10:46:23.129Z,92.13
2023-01-19T10:48:52.805Z,92.41
2023-01-19T10:51:22.058Z,92.49
2023-01-19T10:53:59.423Z,92.92
2023-01-19T10:56:31.697Z,92.89
2023-01-19T10:59:01.552Z,92.57
2023-01-19T11:01:31.112Z,93.16
2023-01-19T11:04:05.440Z,92.57
2023-01-19T11:06:35.647Z,92.45
2023-01-19T11:09:18.536Z,92.29
2023-01-19T11:11:50.079Z,92.78
2023-01-19T11:14:21.500Z,91.79
2023-01-19T11:16:52.588Z,93.08
2023-01-19T11:19:28.169Z,93.11
2023-01-19T11:22:15.991Z,92.33
2023-01-19T11:24:45.023Z,91.36
2023-01-19T11:27:17.995Z,91.92
2023-01-19T11:29:49.171Z,92.68
2023-01-19T11:32:22.928Z,92.41
2023-01-19T11:34:50.932Z,93.52
2023-01-19T11:37:30.612Z,93.08
2023-01-19T11:40:00.146Z,93.41
2023-01-19T11:42:30.977Z,94.00
2023-01-19T11:45:03.839Z,94.04
2023-01-19T11:47:36.918Z,94.05
2023-01-19T11:50:13.065Z,94.40
2023-01-19T11:52:46.027Z,94.06
2023-01-19T11:55:22.305Z,94.71
2023-01-19T11:57:54.315Z,95.14
2023-01-19T12:00:28.631Z,95.78
2023-01-19T12:03:02.802Z,95.42
2023-01-19T12:05:34.268Z,95.34
2023-01-19T12:08:07.781Z,95.15
2023-01-19T12:10:41.448Z,94.95
2023-01-19T12:13:19.522Z,94.36
2023-01-19T12:15:48.841Z,93.94
2023-01-19T12:18:21.789Z,94.18
2023-01-19T12:20:52.418Z,94.41
2023-01-19T12:23:34.517Z,94.20
2023-01-19T12:26:19.602Z,94.09
2023-01-19T12:28:49.459Z,94.18
2023-01-19T12:31:19.000Z,93.67
2023-01-19T12:33:47.706Z,93.67
2023-01-19T12:36:37.657Z,93.88
2023-01-19T12:39:13.470Z,93.77
2023-01-19T12:41:42.497Z,94.97
2023-01-19T12:44:25.191Z,94.63
2023-01-19T12:46:57.276Z,94.24
2023-01-19T12:49:28.130Z,94.39
2023-01-19T12:52:13.792Z,95.27
2023-01-19T12:54:51.591Z,96.37
2023-01-19T12:57:23.950Z,96.25
2023-01-19T12:59:57.208Z,95.45
2023-01-19T13:02:53.523Z,96.30
2023-01-19T13:05:47.434Z,96.48
2023-01-19T13:08:25.629Z,95.90
2023-01-19T13:11:17.761Z,96.38
2023-01-19T13:14:04.322Z,97.10
2023-01-19T13:16:56.832Z,96.93
2023-01-19T13:19:35.940Z,96.92
2023-01-19T13:23:04.419Z,97.00
2023-01-19T13:25:35.684Z,97.76
2023-01-19T13:28:10.267Z,98.19
2023-01-19T13:30:40.852Z,98.35
2023-01-19T13:33:18.597Z,97.22
2023-01-19T13:35:52.658Z,97.51
2023-01-19T13:38:20.577Z,98.23
2023-01-19T13:40:48.474Z,97.54
2023-01-19T13:43:21.607Z,97.50
2023-01-19T13:45:53.382Z,96.89
2023-01-19T13:48:23.222Z,97.61
2023-01-19T13:51:05.115Z,97.20
2023-01-19T13:53:34.107Z,97.42
2023-01-19T13:56:20.485Z,97.24
2023-01-19T13:59:12.695Z,97.44
2023-01-19T14:01:42.551Z,96.58
2023-01-19T14:04:32.424Z,96.32
2023-01-19T14:07:03.329Z,96.41
2023-01-19T14:09:31.086Z,96.48
2023-01-19T14:12:08.841Z,95.63
2023-01-19T14:14:37.973Z,95.01
2023-01-19T14:17:05.882Z,94.92
2023-01-19T14:19:49.028Z,94.69
2023-01-19T14:22:16.680Z,95.17
2023-01-19T14:24:44.235Z,94.75
2023-01-19T14:27:20.355Z,94.19
2023-01-19T14:29:50.582Z,95.20
2023-01-19T14:32:20.266Z,95.24
2023-01-19T14:34:50.080Z,94.96
2023-01-19T14:37:28.679Z,94.87
2023-01-19T14:39:59.933Z,95.23
2023-01-19T14:42:31.753Z,95.93
2023-01-19T14:45:03.780Z,96.05
2023-01-19T14:47:36.606Z,96.56
2023-01-19T14:50:10.680Z,96.89
2023-01-19T14:52:41.452Z,96.89
2023-01-19T14:55:20.142Z,96.14
2023-01-19T14:57:47.749Z,95.85
2023-01-19T15:00:18.747Z,95.92
2023-01-19T15:02:46.793Z,97.26
2023-01-19T15:05:14.862Z,96.49
2023-01-19T15:07:45.473Z,97.67
2023-01-19T15:10:18.846Z,98.05
2023-01-19T15:12:46.662Z,98.39
2023-01-19T15:15:18.091Z,98.89
2023-01-19T15:17:46.025Z,99.39
2023-01-19T15:20:18.981Z,99.71
2023-01-19T15:22:47.136Z,99.22
2023-01-19T15:25:16.066Z,98.97
2023-01-19T15:27:44.988Z,99.64
2023-01-19T15:30:21.162Z,99.13
2023-01-19T15:32:48.748Z,99.50
2023-01-19T15:35:18.533Z,98.91
2023-01-19T15:37:46.303Z,98.92
2023-01-19T15:40:14.654Z,99.26
2023-01-19T15:42:42.729Z,98.22
2023-01-19T15:45:34.444Z,97.89
2023-01-19T15:48:04.936Z,98.11
2023-01-19T15:50:32.951Z,97.93
2023-01-19T15:53:00.522Z,98.00
2023-01-19T15:55:28.063Z,98.34
2023-01-19T15:58:01.163Z,98.01
2023-01-19T16:00:29.675Z,98.59
2023-01-19T16:02:59.143Z,98.58
2023-01-19T16:05:41.510Z,98.13
2023-01-19T16:08:09.807Z,97.86
2023-01-19T16:10:37.843Z,98.03
2023-01-19T16:13:05.501Z,97.86
2023-01-19T16:15:35.666Z,97.52
2023-01-19T16:18:05.171Z,97.15
2023-01-19T16:20:33.212Z,96.34
2023-01-19T16:23:14.513Z,96.88
2023-01-19T16:25:42.875Z,97.69
2023-01-19T16:28:10.500Z,97.31
2023-01-19T16:30:38.073Z,97.39
2023-01-19T16:33:08.324Z,97.90
2023-01-19T16:35:35.853Z,98.68
2023-01-19T16:38:03.382Z,98.45
2023-01-19T16:40:30.975Z,98.29
2023-01-19T16:42:58.804Z,98.79
2023-01-19T16:45:26.466Z,98.38
2023-01-19T16:47:54.064Z,97.99
2023-01-19T16:50:22.904Z,97.62
2023-01-19T16:52:51.274Z,97.62
2023-01-19T16:55:18.905Z,97.48
2023-01-19T16:57:46.590Z,97.46
2023-01-19T17:00:15.057Z,97.60
2023-01-19T17:02:43.133Z,97.11
2023-01-19T17:05:11.266Z,96.52
2023-01-19T17:07:40.336Z,97.19
2023-01-19T17:10:09.803Z,96.86
2023-01-19T17:12:37.594Z,96.29
2023-01-19T17:15:05.978Z,95.81
2023-01-19T17:17:34.868Z,95.60
2023-01-19T17:20:03.382Z,95.34
2023-01-19T17:22:30.892Z,94.89
2023-01-19T17:24:59.768Z,95.42
2023-01-19T17:27:27.334Z,94.40
2023-01-19T17:29:55.018Z,93.79
2023-01-19T17:32:22.569Z,93.34
2023-01-19T17:34:50.435Z,92.96
2023-01-19T17:37:18.006Z,92.33
2023-01-19T17:39:45.512Z,92.27
2023-01-19T17:42:14.486Z,91.40
2023-01-19T17:44:42.815Z,90.90
2023-01-19T17:47:10.363Z,90.71
2023-01-19T17:49:37.994Z,90.02
2023-01-19T17:52:05.982Z,90.27
2023-01-19T17:54:33.817Z,90.46
2023-01-19T17:57:01.362Z,90.74
2023-01-19T17:59:30.318Z,89.61
2023-01-19T18:01:57.870Z,90.09
2023-01-19T18:04:25.425Z,89.66
2023-01-19T18:06:52.942Z,88.47
2023-01-19T18:09:20.476Z,89.69
2023-01-19T18:11:48.020Z,89.27
2023-01-19T18:14:15.588Z,89.07
2023-01-19T18:16:59.541Z,89.52
2023-01-19T18:19:27.236Z,89.11
2023-01-19T18:21:54.837Z,89.31
2023-01-19T18:24:22.416Z,88.42
2023-01-19T18:26:49.942Z,88.78
2023-01-19T18:29:19.204Z,88.64
2023-01-19T18:31:46.816Z,88.94
2023-01-19T18:34:15.665Z,87.18
2023-01-19T18:36:43.264Z,87.94
2023-01-19T18:39:10.884Z,87.31
2023-01-19T18:41:41.606Z,87.71
2023-01-19T18:44:09.800Z,87.29
2023-01-19T18:46:37.597Z,87.02
2023-01-19T18:49:06.007Z,87.16
2023-01-19T18:51:34.891Z,87.27
2023-01-19T18:54:02.418Z,87.02
2023-01-19T18:56:29.943Z,87.40
2023-01-19T18:58:57.486Z,87.17
2023-01-19T19:01:27.150Z,87.49
2023-01-19T19:03:55.608Z,86.71
2023-01-19T19:06:24.010Z,86.80
2023-01-19T19:08:54.468Z,86.22
2023-01-19T19:11:23.861Z,86.61
2023-01-19T19:13:53.653Z,86.37
2023-01-19T19:16:21.255Z,86.46
2023-01-19T19:18:49.803Z,86.60
2023-01-19T19:21:18.981Z,86.82
2023-01-19T19:23:51.053Z,87.05
2023-01-19T19:26:20.501Z,86.67
2023-01-19T19:28:48.239Z,87.55
2023-01-19T19:31:17.942Z,87.12
2023-01-19T19:33:45.540Z,87.23
2023-01-19T19:36:13.376Z,86.99
2023-01-19T19:38:42.718Z,86.62
2023-01-19T19:41:13.775Z,87.03
2023-01-19T19:43:43.001Z,87.46
2023-01-19T19:46:13.427Z,87.02
2023-01-19T19:48:41.852Z,86.84
2023-01-19T19:51:18.018Z,87.09
2023-01-19T19:53:46.260Z,87.40
2023-01-19T19:56:14.046Z,86.77
2023-01-19T19:58:44.070Z,86.42
2023-01-19T20:01:13.333Z,86.21
2023-01-19T20:03:41.008Z,86.59
2023-01-19T20:06:10.366Z,85.74
2023-01-19T20:08:37.964Z,85.74
2023-01-19T20:11:07.559Z,85.81
2023-01-19T20:13:35.693Z,85.32
2023-01-19T20:16:05.795Z,85.41
2023-01-19T20:18:34.134Z,85.16
2023-01-19T20:21:01.683Z,85.30
2023-01-19T20:23:29.279Z,85.25
2023-01-19T20:25:56.812Z,85.75
2023-01-19T20:28:24.402Z,85.26
2023-01-19T20:30:51.949Z,85.22
2023-01-19T20:33:20.871Z,85.38
2023-01-19T20:35:48.505Z,85.02
2023-01-19T20:38:16.047Z,85.78
2023-01-19T20:40:43.580Z,85.90
2023-01-19T20:43:11.101Z,86.01
2023-01-19T20:45:38.662Z,85.64
2023-01-19T20:48:06.418Z,85.93
2023-01-19T20:50:35.328Z,86.31
2023-01-19T20:53:02.841Z,85.96
2023-01-19T20:55:30.406Z,85.55
2023-01-19T20:57:57.963Z,85.56
2023-01-19T21:00:26.643Z,85.71
2023-01-19T21:02:54.219Z,85.62
2023-01-19T21:05:21.769Z,85.75
2023-01-19T21:07:51.106Z,85.96
2023-01-19T21:10:18.715Z,86.02
2023-01-19T21:12:46.227Z,86.43
2023-01-19T21:15:14.005Z,87.07
2023-01-19T21:17:43.144Z,86.62
2023-01-19T21:20:13.171Z,86.85
2023-01-19T21:22:40.865Z,86.55
2023-01-19T21:25:10.532Z,87.04
2023-01-19T21:27:38.113Z,86.90
2023-01-19T21:30:06.550Z,87.08
2023-01-19T21:32:34.137Z,86.81
2023-01-19T21:35:01.687Z,87.25
2023-01-19T21:37:30.346Z,87.44
2023-01-19T21:39:58.039Z,87.19
2023-01-19T21:42:26.963Z,87.49
2023-01-19T21:44:54.486Z,86.95
2023-01-19T21:47:22.052Z,86.98
2023-01-19T21:49:49.627Z,86.53
2023-01-19T21:52:17.200Z,85.95
2023-01-19T21:54:44.786Z,86.21
2023-01-19T21:57:15.083Z,86.17
2023-01-19T21:59:43.936Z,86.48
2023-01-19T22:02:13.382Z,86.25
2023-01-19T22:04:41.514Z,86.25
2023-01-19T22:07:09.120Z,86.12
2023-01-19T22:09:36.847Z,85.52
2023-01-19T22:12:04.615Z,86.35
2023-01-19T22:14:32.196Z,86.19
2023-01-19T22:17:01.092Z,86.73
2023-01-19T22:19:28.687Z,86.07
2023-01-19T22:21:56.223Z,86.29
2023-01-19T22:24:23.742Z,86.21
2023-01-19T22:26:51.322Z,86.08
2023-01-19T22:29:18.831Z,85.69
2023-01-19T22:31:46.901Z,85.79
2023-01-19T22:34:17.052Z,86.10
2023-01-19T22:36:44.789Z,86.41
2023-01-19T22:39:13.634Z,86.23
2023-01-19T22:41:43.115Z,86.22
2023-01-19T22:44:13.556Z,87.51
2023-01-19T22:46:41.379Z,87.12
2023-01-19T22:49:10.940Z,87.03
2023-01-19T22:51:39.825Z,87.12
2023-01-19T22:54:08.061Z,86.77
2023-01-19T22:56:37.624Z,87.61
2023-01-19T22:59:06.071Z,87.40
2023-01-19T23:01:35.398Z,87.92
2023-01-19T23:04:04.229Z,88.44
2023-01-19T23:06:33.262Z,89.06
2023-01-19T23:09:04.572Z,90.39
2023-01-19T23:11:35.955Z,90.56
2023-01-19T23:14:04.663Z,91.00
2023-01-19T23:16:32.204Z,91.24
2023-01-19T23:19:00.062Z,91.16
2023-01-19T23:21:29.551Z,91.14
2023-01-19T23:23:58.397Z,91.73
2023-01-19T23:26:27.765Z,91.90
2023-01-19T23:28:57.025Z,91.88
2023-01-19T23:31:26.832Z,92.23
2023-01-19T23:33:56.206Z,93.01
2023-01-19T23:36:25.468Z,92.49
2023-01-19T23:38:54.547Z,92.72
2023-01-19T23:41:22.940Z,92.45
2023-01-19T23:43:52.123Z,92.63
2023-01-19T23:46:20.533Z,91.94
2023-01-19T23:48:48.734Z,92.78
2023-01-19T23:51:18.571Z,92.75
2023-01-19T23:53:47.044Z,92.79
2023-01-19T23:56:17.391Z,93.60
2023-01-19T23:58:45.702Z,92.72
